Villa General Belgrano, Argentina
Current Conditions -  °F | °C
As of 2:00 AM on Tuesday 23 Dec 2014 (Local Time) from SACO Reporting Station
Clear Clear  
Wind Chill: 50°   Ceiling: Unl
Heat Index: 50°   Visibility: 6mi
Dew Point: 41°   Wind: 7mph
Humidity: 71%   Direction: 320°NW
Pressure: 30.36"   Gusts: NA
Location:  31.98°S, 64.57°W
Report Text: SACO 230500Z 32006KT CAVOK 10/05 Q1028
Loading
Personal Weather Stations






























Interactive Weather Map New forecast layout! Learn more

10-Day Weather Forecast

Advertisements
Track Severe Weather on mobile